createdAt,value
2018-10-21T00:00:26.429Z,99.99
2018-10-21T00:01:25.545Z,99.99
2018-10-21T00:02:25.643Z,99.99
2018-10-21T00:03:25.285Z,99.99
2018-10-21T00:04:25.156Z,99.99
2018-10-21T00:05:25.027Z,99.99
2018-10-21T00:06:24.900Z,99.99
2018-10-21T00:07:24.769Z,99.99
2018-10-21T00:08:24.640Z,99.99
2018-10-21T00:09:24.511Z,99.99
2018-10-21T00:10:24.380Z,99.99
2018-10-21T00:11:24.251Z,99.99
2018-10-21T00:12:24.121Z,99.99
2018-10-21T00:13:23.995Z,99.99
2018-10-21T00:14:23.866Z,99.99
2018-10-21T00:15:23.892Z,99.99
2018-10-21T00:16:23.608Z,99.99
2018-10-21T00:17:23.477Z,99.99
2018-10-21T00:18:23.350Z,99.99
2018-10-21T00:19:23.219Z,99.99
2018-10-21T00:20:23.090Z,99.99
2018-10-21T00:21:22.962Z,99.99
2018-10-21T00:22:22.833Z,99.99
2018-10-21T00:23:22.706Z,99.99
2018-10-21T00:24:22.579Z,99.99
2018-10-21T00:25:22.445Z,99.99
2018-10-21T00:26:22.316Z,99.99
2018-10-21T00:27:22.202Z,99.99
2018-10-21T00:28:22.059Z,99.99
2018-10-21T00:29:22.459Z,99.99
2018-10-21T00:30:21.801Z,99.99
2018-10-21T00:31:21.671Z,99.99
2018-10-21T00:32:21.542Z,99.99
2018-10-21T00:33:21.415Z,99.99
2018-10-21T00:34:21.285Z,99.99
2018-10-21T00:35:21.157Z,99.99
2018-10-21T00:36:21.025Z,99.99
2018-10-21T00:37:20.899Z,99.99
2018-10-21T00:38:20.769Z,99.99
2018-10-21T00:39:20.642Z,99.99
2018-10-21T00:40:20.509Z,99.99
2018-10-21T00:41:20.382Z,99.99
2018-10-21T00:42:20.254Z,99.99
2018-10-21T00:43:20.126Z,99.99
2018-10-21T00:44:19.995Z,99.99
2018-10-21T00:45:19.866Z,99.99
2018-10-21T00:46:19.736Z,99.99
2018-10-21T00:47:19.609Z,99.99
2018-10-21T00:48:19.477Z,99.99
2018-10-21T00:49:19.349Z,99.99
2018-10-21T00:50:19.220Z,99.99
2018-10-21T00:51:19.092Z,99.99
2018-10-21T00:52:18.962Z,99.99
2018-10-21T00:53:18.837Z,99.99
2018-10-21T00:54:18.707Z,99.99
2018-10-21T00:55:18.576Z,99.99
2018-10-21T00:56:18.449Z,99.99
2018-10-21T00:57:18.347Z,99.99
2018-10-21T00:58:18.469Z,99.99
2018-10-21T00:59:18.060Z,99.99
2018-10-21T01:00:17.946Z,99.99
2018-10-21T01:01:17.815Z,99.99
2018-10-21T01:02:17.676Z,99.99
2018-10-21T01:03:17.600Z,99.99
2018-10-21T01:04:17.471Z,99.99
2018-10-21T01:05:17.286Z,99.99
2018-10-21T01:06:17.162Z,99.99
2018-10-21T01:07:17.032Z,99.99
2018-10-21T01:08:16.902Z,99.99
2018-10-21T01:09:16.856Z,99.99
2018-10-21T01:10:16.644Z,99.99
2018-10-21T01:11:16.553Z,99.99
2018-10-21T01:12:16.385Z,99.99
2018-10-21T01:13:16.258Z,99.99
2018-10-21T01:14:16.127Z,99.99
2018-10-21T01:15:16.061Z,99.99
2018-10-21T01:16:15.871Z,99.99
2018-10-21T01:17:15.740Z,99.99
2018-10-21T01:18:15.617Z,99.99
2018-10-21T01:19:15.484Z,99.99
2018-10-21T01:20:15.354Z,99.99
2018-10-21T01:21:15.254Z,99.99
2018-10-21T01:22:15.098Z,99.99
2018-10-21T01:23:14.968Z,99.99
2018-10-21T01:24:14.840Z,99.99
2018-10-21T01:25:14.709Z,99.99
2018-10-21T01:26:14.581Z,99.99
2018-10-21T01:27:14.626Z,99.99
2018-10-21T01:28:14.320Z,99.99
2018-10-21T01:29:14.191Z,99.99
2018-10-21T01:30:14.062Z,99.99
2018-10-21T01:31:13.936Z,99.99
2018-10-21T01:32:13.806Z,99.99
2018-10-21T01:33:13.691Z,99.99
2018-10-21T01:34:13.547Z,99.99
2018-10-21T01:35:13.418Z,99.99
2018-10-21T01:36:13.339Z,99.99
2018-10-21T01:37:13.232Z,99.99
2018-10-21T01:38:13.103Z,99.99
2018-10-21T01:39:12.965Z,99.99
2018-10-21T01:40:12.771Z,99.99
2018-10-21T01:41:12.643Z,99.99
2018-10-21T01:42:12.512Z,99.99
2018-10-21T01:43:12.384Z,99.99
2018-10-21T01:44:12.253Z,99.99
2018-10-21T01:45:12.252Z,99.99
2018-10-21T01:46:11.994Z,99.99
2018-10-21T01:47:11.867Z,99.99
2018-10-21T01:48:11.741Z,99.99
2018-10-21T01:49:11.610Z,99.99
2018-10-21T01:50:11.479Z,99.99
2018-10-21T01:51:11.417Z,99.99
2018-10-21T01:52:11.223Z,99.99
2018-10-21T01:53:11.091Z,99.99
2018-10-21T01:54:10.966Z,99.99
2018-10-21T01:55:10.833Z,99.99
2018-10-21T01:56:10.704Z,99.99
2018-10-21T01:57:10.592Z,99.99
2018-10-21T01:58:10.446Z,99.99
2018-10-21T01:59:10.318Z,99.99
2018-10-21T02:00:10.188Z,99.99
2018-10-21T02:01:10.060Z,99.99
2018-10-21T02:02:09.930Z,99.99
2018-10-21T02:03:09.845Z,99.99
2018-10-21T02:04:09.672Z,99.99
2018-10-21T02:05:09.541Z,99.99
2018-10-21T02:06:09.415Z,99.99
2018-10-21T02:07:09.286Z,99.99
2018-10-21T02:08:09.156Z,99.99
2018-10-21T02:09:09.043Z,99.99
2018-10-21T02:10:08.898Z,99.99
2018-10-21T02:11:08.768Z,99.99
2018-10-21T02:12:08.638Z,99.99
2018-10-21T02:13:08.560Z,99.99
2018-10-21T02:14:08.417Z,99.99
2018-10-21T02:15:08.287Z,99.99
2018-10-21T02:16:08.123Z,99.99
2018-10-21T02:17:07.991Z,99.99
2018-10-21T02:18:07.865Z,99.99
2018-10-21T02:19:07.735Z,99.99
2018-10-21T02:20:07.607Z,99.99
2018-10-21T02:21:07.498Z,99.99
2018-10-21T02:22:07.348Z,99.99
2018-10-21T02:23:07.218Z,99.99
2018-10-21T02:24:07.089Z,99.99
2018-10-21T02:25:06.959Z,99.99
2018-10-21T02:26:06.877Z,99.99
2018-10-21T02:27:06.724Z,99.99
2018-10-21T02:28:06.580Z,99.99
2018-10-21T02:29:06.443Z,99.99
2018-10-21T02:30:06.315Z,99.99
2018-10-21T02:31:06.187Z,99.99
2018-10-21T02:32:06.057Z,99.99
2018-10-21T02:33:06.001Z,99.99
2018-10-21T02:34:05.797Z,99.99
2018-10-21T02:35:05.671Z,99.99
2018-10-21T02:36:05.550Z,99.99
2018-10-21T02:37:05.411Z,99.99
2018-10-21T02:38:05.282Z,99.99
2018-10-21T02:39:05.197Z,99.99
2018-10-21T02:40:05.026Z,99.99
2018-10-21T02:41:04.894Z,99.99
2018-10-21T02:42:04.764Z,99.96
2018-10-21T02:43:04.635Z,99.68
2018-10-21T02:44:04.505Z,99.99
2018-10-21T02:45:04.421Z,99.96
2018-10-21T02:46:04.254Z,99.99
2018-10-21T02:47:04.117Z,99.99
2018-10-21T02:48:03.988Z,99.99
2018-10-21T02:49:03.876Z,99.99
2018-10-21T02:50:03.732Z,99.87
2018-10-21T02:51:03.661Z,99.39
2018-10-21T02:52:03.469Z,99.96
2018-10-21T02:53:03.343Z,99.87
2018-10-21T02:54:03.213Z,99.99
2018-10-21T02:55:03.081Z,99.96
2018-10-21T02:56:02.952Z,99.77
2018-10-21T02:57:02.881Z,99.68
2018-10-21T02:58:02.695Z,99.99
2018-10-21T02:59:02.567Z,99.96
2018-10-21T03:00:02.439Z,99.99
2018-10-21T03:01:02.311Z,99.99
2018-10-21T03:02:02.181Z,99.99
2018-10-21T03:03:02.110Z,99.99
2018-10-21T03:04:01.920Z,99.99
2018-10-21T03:05:01.795Z,99.99
2018-10-21T03:06:01.664Z,99.96
2018-10-21T03:07:01.536Z,99.49
2018-10-21T03:08:01.406Z,98.35
2018-10-21T03:09:01.276Z,97.74
2018-10-21T03:10:01.145Z,97.55
2018-10-21T03:11:01.023Z,97.55
2018-10-21T03:12:00.891Z,96.69
2018-10-21T03:13:00.758Z,95.74
2018-10-21T03:14:00.629Z,94.60
2018-10-21T03:15:00.522Z,93.46
2018-10-21T03:16:00.369Z,94.03
2018-10-21T03:17:00.245Z,95.27
2018-10-21T03:18:00.117Z,96.55
2018-10-21T03:18:59.984Z,97.02
2018-10-21T03:19:59.855Z,96.92
2018-10-21T03:20:59.730Z,98.35
2018-10-21T03:21:59.595Z,97.50
2018-10-21T03:22:59.467Z,98.07
2018-10-21T03:23:59.334Z,98.44
2018-10-21T03:24:59.207Z,98.25
2018-10-21T03:25:59.077Z,98.07
2018-10-21T03:26:58.959Z,98.16
2018-10-21T03:27:58.818Z,98.63
2018-10-21T03:28:58.689Z,98.63
2018-10-21T03:29:58.561Z,98.73
2018-10-21T03:30:58.430Z,98.35
2018-10-21T03:31:58.304Z,98.82
2018-10-21T03:32:58.290Z,98.82
2018-10-21T03:33:58.127Z,98.35
2018-10-21T03:34:57.912Z,98.54
2018-10-21T03:35:57.783Z,98.54
2018-10-21T03:36:57.655Z,98.35
2018-10-21T03:37:57.523Z,98.16
2018-10-21T03:38:57.403Z,98.54
2018-10-21T03:39:57.280Z,97.97
2018-10-21T03:40:57.134Z,98.16
2018-10-21T03:41:57.015Z,98.07
2018-10-21T03:42:58.735Z,97.59
2018-10-21T03:43:56.748Z,97.12
2018-10-21T03:44:56.620Z,96.83
2018-10-21T03:45:56.494Z,96.92
2018-10-21T03:46:56.361Z,96.92
2018-10-21T03:47:56.230Z,96.64
2018-10-21T03:48:56.100Z,97.02
2018-10-21T03:49:55.970Z,96.83
2018-10-21T03:50:55.843Z,95.50
2018-10-21T03:51:55.715Z,94.56
2018-10-21T03:52:56.546Z,94.03
2018-10-21T03:53:55.455Z,93.99
2018-10-21T03:54:55.326Z,94.37
2018-10-21T03:55:55.195Z,94.46
2018-10-21T03:56:55.067Z,94.37
2018-10-21T03:57:54.955Z,94.37
2018-10-21T03:58:54.805Z,94.46
2018-10-21T03:59:54.677Z,95.69
2018-10-21T04:00:54.549Z,96.45
2018-10-21T04:01:54.422Z,96.17
2018-10-21T04:02:54.291Z,96.36
2018-10-21T04:03:54.161Z,96.08
2018-10-21T04:04:54.032Z,96.36
2018-10-21T04:05:53.901Z,97.02
2018-10-21T04:06:53.772Z,96.92
2018-10-21T04:07:53.642Z,96.92
2018-10-21T04:08:53.513Z,96.17
2018-10-21T04:09:53.424Z,95.69
2018-10-21T04:10:53.261Z,96.08
2018-10-21T04:11:53.128Z,96.36
2018-10-21T04:12:52.994Z,95.79
2018-10-21T04:13:52.868Z,96.26
2018-10-21T04:14:52.736Z,96.36
2018-10-21T04:15:52.612Z,95.60
2018-10-21T04:16:52.477Z,95.12
2018-10-21T04:17:52.348Z,94.37
2018-10-21T04:18:52.221Z,94.46
2018-10-21T04:19:52.089Z,94.37
2018-10-21T04:20:51.959Z,95.03
2018-10-21T04:21:52.545Z,95.03
2018-10-21T04:22:51.702Z,93.99
2018-10-21T04:23:51.571Z,92.76
2018-10-21T04:24:51.450Z,91.71
2018-10-21T04:25:51.313Z,92.76
2018-10-21T04:26:51.185Z,92.38
2018-10-21T04:27:51.057Z,92.76
2018-10-21T04:28:50.927Z,93.23
2018-10-21T04:29:50.795Z,93.70
2018-10-21T04:30:50.667Z,93.41
2018-10-21T04:31:50.538Z,93.89
2018-10-21T04:32:50.411Z,94.18
2018-10-21T04:33:50.280Z,94.18
2018-10-21T04:34:50.150Z,94.56
2018-10-21T04:35:50.021Z,94.18
2018-10-21T04:36:49.893Z,94.65
2018-10-21T04:37:49.763Z,95.12
2018-10-21T04:38:49.633Z,94.93
2018-10-21T04:39:49.505Z,94.46
2018-10-21T04:40:49.375Z,94.37
2018-10-21T04:41:49.244Z,94.56
2018-10-21T04:42:49.117Z,94.56
2018-10-21T04:43:48.988Z,93.23
2018-10-21T04:44:48.862Z,93.41
2018-10-21T04:45:48.729Z,92.85
2018-10-21T04:46:48.736Z,92.57
2018-10-21T04:47:48.473Z,92.09
2018-10-21T04:48:48.340Z,92.57
2018-10-21T04:49:48.210Z,92.66
2018-10-21T04:50:48.550Z,92.85
2018-10-21T04:51:47.950Z,93.04
2018-10-21T04:52:47.825Z,92.76
2018-10-21T04:53:47.694Z,91.52
2018-10-21T04:54:47.564Z,91.14
2018-10-21T04:55:47.435Z,90.95
2018-10-21T04:56:47.305Z,90.95
2018-10-21T04:57:47.179Z,91.71
2018-10-21T04:58:47.050Z,90.95
2018-10-21T04:59:46.919Z,91.33
2018-10-21T05:00:46.851Z,91.42
2018-10-21T05:01:46.659Z,90.95
2018-10-21T05:02:46.532Z,91.14
2018-10-21T05:03:46.398Z,90.95
2018-10-21T05:04:46.270Z,91.33
2018-10-21T05:05:46.143Z,91.14
2018-10-21T05:06:46.015Z,91.14
2018-10-21T05:07:45.882Z,91.42
2018-10-21T05:08:45.752Z,91.52
2018-10-21T05:09:45.622Z,91.61
2018-10-21T05:10:45.496Z,91.24
2018-10-21T05:11:45.364Z,91.90
2018-10-21T05:12:45.232Z,92.18
2018-10-21T05:13:45.105Z,91.42
2018-10-21T05:14:44.984Z,91.33
2018-10-21T05:15:44.844Z,91.42
2018-10-21T05:16:44.749Z,89.43
2018-10-21T05:17:44.584Z,89.15
2018-10-21T05:18:44.458Z,90.10
2018-10-21T05:19:44.553Z,90.95
2018-10-21T05:20:44.196Z,91.61
2018-10-21T05:21:44.067Z,91.33
2018-10-21T05:22:43.986Z,89.81
2018-10-21T05:23:43.806Z,88.39
2018-10-21T05:24:43.677Z,88.20
2018-10-21T05:25:43.549Z,89.43
2018-10-21T05:26:43.419Z,89.81
2018-10-21T05:27:43.290Z,90.19
2018-10-21T05:28:43.159Z,91.05
2018-10-21T05:29:43.036Z,91.71
2018-10-21T05:30:42.899Z,92.09
2018-10-21T05:31:42.770Z,91.90
2018-10-21T05:32:42.640Z,92.18
2018-10-21T05:33:42.528Z,91.90
2018-10-21T05:34:42.384Z,92.38
2018-10-21T05:35:42.253Z,90.95
2018-10-21T05:36:42.126Z,90.48
2018-10-21T05:37:42.012Z,91.99
2018-10-21T05:38:41.864Z,92.18
2018-10-21T05:39:41.734Z,90.95
2018-10-21T05:40:41.688Z,90.95
2018-10-21T05:41:41.476Z,90.86
2018-10-21T05:42:41.347Z,90.86
2018-10-21T05:43:41.216Z,90.95
2018-10-21T05:44:41.087Z,90.00
2018-10-21T05:45:40.957Z,90.76
2018-10-21T05:46:40.881Z,91.90
2018-10-21T05:47:40.702Z,91.99
2018-10-21T05:48:40.569Z,92.18
2018-10-21T05:49:40.445Z,91.14
2018-10-21T05:50:40.311Z,91.80
2018-10-21T05:51:40.180Z,91.33
2018-10-21T05:52:40.050Z,90.95
2018-10-21T05:53:39.922Z,89.53
2018-10-21T05:54:39.794Z,88.87
2018-10-21T05:55:39.663Z,88.87
2018-10-21T05:56:39.533Z,88.77
2018-10-21T05:57:39.406Z,89.72
2018-10-21T05:58:39.276Z,90.19
2018-10-21T05:59:39.147Z,90.95
2018-10-21T06:00:39.017Z,90.00
2018-10-21T06:01:38.885Z,90.38
2018-10-21T06:02:38.812Z,91.42
2018-10-21T06:03:38.629Z,91.71
2018-10-21T06:04:38.498Z,92.18
2018-10-21T06:05:38.370Z,92.38
2018-10-21T06:06:38.241Z,93.04
2018-10-21T06:07:38.111Z,92.18
2018-10-21T06:08:37.980Z,91.99
2018-10-21T06:09:37.851Z,92.94
2018-10-21T06:10:37.722Z,92.57
2018-10-21T06:11:37.599Z,93.04
2018-10-21T06:12:37.463Z,92.57
2018-10-21T06:13:37.337Z,92.09
2018-10-21T06:14:37.206Z,91.33
2018-10-21T06:15:37.090Z,90.10
2018-10-21T06:16:36.948Z,88.72
2018-10-21T06:17:36.816Z,89.10
2018-10-21T06:18:36.691Z,88.43
2018-10-21T06:19:36.567Z,87.30
2018-10-21T06:20:36.429Z,88.15
2018-10-21T06:21:36.300Z,89.48
2018-10-21T06:22:36.172Z,88.53
2018-10-21T06:23:36.097Z,88.34
2018-10-21T06:24:35.912Z,85.68
2018-10-21T06:25:35.785Z,85.78
2018-10-21T06:26:35.655Z,86.54
2018-10-21T06:27:35.581Z,85.30
2018-10-21T06:28:35.397Z,84.07
2018-10-21T06:29:35.266Z,84.07
2018-10-21T06:30:35.140Z,84.07
2018-10-21T06:31:35.008Z,83.12
2018-10-21T06:32:34.881Z,84.68
2018-10-21T06:33:34.764Z,81.55
2018-10-21T06:34:34.625Z,80.60
2018-10-21T06:35:34.496Z,80.79
2018-10-21T06:36:34.417Z,80.88
2018-10-21T06:37:34.238Z,81.93
2018-10-21T06:38:34.111Z,82.69
2018-10-21T06:39:33.980Z,81.65
2018-10-21T06:40:33.852Z,79.17
2018-10-21T06:41:33.723Z,77.84
2018-10-21T06:42:33.596Z,78.42
2018-10-21T06:43:33.465Z,79.27
2018-10-21T06:44:33.335Z,77.75
2018-10-21T06:45:33.212Z,77.94
2018-10-21T06:46:33.081Z,78.51
2018-10-21T06:47:32.952Z,78.89
2018-10-21T06:48:32.976Z,79.27
2018-10-21T06:49:32.694Z,78.32
2018-10-21T06:50:32.570Z,77.37
2018-10-21T06:51:32.439Z,78.03
2018-10-21T06:52:32.312Z,77.47
2018-10-21T06:53:32.186Z,76.52
2018-10-21T06:54:32.055Z,75.57
2018-10-21T06:55:31.928Z,76.52
2018-10-21T06:56:31.955Z,77.84
2018-10-21T06:57:31.845Z,76.71
2018-10-21T06:58:31.540Z,76.61
2018-10-21T06:59:31.418Z,74.62
2018-10-21T07:00:31.285Z,75.28
2018-10-21T07:01:31.160Z,76.42
2018-10-21T07:02:31.027Z,74.62
2018-10-21T07:03:30.900Z,75.95
2018-10-21T07:04:30.859Z,76.23
2018-10-21T07:05:30.644Z,73.96
2018-10-21T07:06:30.516Z,72.63
2018-10-21T07:07:30.387Z,72.00
2018-10-21T07:08:30.259Z,71.33
2018-10-21T07:09:30.130Z,69.71
2018-10-21T07:10:30.007Z,70.86
2018-10-21T07:11:29.874Z,71.81
2018-10-21T07:12:29.744Z,72.28
2018-10-21T07:13:29.618Z,74.85
2018-10-21T07:14:29.495Z,75.79
2018-10-21T07:15:29.385Z,76.46
2018-10-21T07:16:29.327Z,76.27
2018-10-21T07:17:29.106Z,78.55
2018-10-21T07:18:28.979Z,79.22
2018-10-21T07:19:28.850Z,78.27
2018-10-21T07:20:28.730Z,77.22
2018-10-21T07:21:28.594Z,77.89
2018-10-21T07:22:28.471Z,78.64
2018-10-21T07:23:28.339Z,79.50
2018-10-21T07:24:28.212Z,79.12
2018-10-21T07:25:28.084Z,79.22
2018-10-21T07:26:27.955Z,76.56
2018-10-21T07:27:27.828Z,75.89
2018-10-21T07:28:27.776Z,77.98
2018-10-21T07:29:27.585Z,76.69
2018-10-21T07:30:27.447Z,74.79
2018-10-21T07:31:27.316Z,75.84
2018-10-21T07:32:27.194Z,77.45
2018-10-21T07:33:27.064Z,76.50
2018-10-21T07:34:26.944Z,75.64
2018-10-21T07:35:26.847Z,75.89
2018-10-21T07:36:26.771Z,75.51
2018-10-21T07:37:26.567Z,75.64
2018-10-21T07:38:26.430Z,74.85
2018-10-21T07:39:28.278Z,74.27
2018-10-21T07:40:26.209Z,73.18
2018-10-21T07:41:26.046Z,70.13
2018-10-21T07:42:25.923Z,69.37
2018-10-21T07:43:25.793Z,69.18
2018-10-21T07:44:25.664Z,67.66
2018-10-21T07:45:25.547Z,66.42
2018-10-21T07:46:25.410Z,67.98
2018-10-21T07:47:25.298Z,68.36
2018-10-21T07:48:25.159Z,68.17
2018-10-21T07:49:25.032Z,68.74
2018-10-21T07:50:24.908Z,67.79
2018-10-21T07:51:26.849Z,67.41
2018-10-21T07:52:24.645Z,68.30
2018-10-21T07:53:24.526Z,69.35
2018-10-21T07:54:24.396Z,68.62
2018-10-21T07:55:24.413Z,68.05
2018-10-21T07:56:24.141Z,68.18
2018-10-21T07:57:24.025Z,65.80
2018-10-21T07:58:23.891Z,64.75
2018-10-21T07:59:23.809Z,63.51
2018-10-21T08:00:23.636Z,63.73
2018-10-21T08:01:23.514Z,63.26
2018-10-21T08:02:23.385Z,62.12
2018-10-21T08:03:23.256Z,62.02
2018-10-21T08:04:23.130Z,62.21
2018-10-21T08:05:23.003Z,63.64
2018-10-21T08:06:22.887Z,61.45
2018-10-21T08:07:22.752Z,60.88
2018-10-21T08:08:22.626Z,59.35
2018-10-21T08:09:22.598Z,59.26
2018-10-21T08:10:22.377Z,60.14
2018-10-21T08:11:22.250Z,59.38
2018-10-21T08:12:22.128Z,57.67
2018-10-21T08:13:22.001Z,57.79
2018-10-21T08:14:22.642Z,60.46
2018-10-21T08:15:21.752Z,62.56
2018-10-21T08:16:21.626Z,62.18
2018-10-21T08:17:21.503Z,61.13
2018-10-21T08:18:21.377Z,61.13
2018-10-21T08:19:21.253Z,62.56
2018-10-21T08:20:21.157Z,62.08
2018-10-21T08:21:21.062Z,61.19
2018-10-21T08:22:20.958Z,60.81
2018-10-21T08:23:22.298Z,62.15
2018-10-21T08:24:20.637Z,61.96
2018-10-21T08:25:20.505Z,61.86
2018-10-21T08:26:20.383Z,62.05
2018-10-21T08:27:20.309Z,62.59
2018-10-21T08:28:20.135Z,63.96
2018-10-21T08:29:20.009Z,63.76
2018-10-21T08:30:19.885Z,61.99
2018-10-21T08:31:19.761Z,61.22
2018-10-21T08:32:19.638Z,60.36
2018-10-21T08:33:19.511Z,60.55
2018-10-21T08:34:19.391Z,60.08
2018-10-21T08:35:19.266Z,59.89
2018-10-21T08:36:19.140Z,59.60
2018-10-21T08:37:19.017Z,59.99
2018-10-21T08:38:18.892Z,59.60
2018-10-21T08:39:18.771Z,58.91
2018-10-21T08:40:18.644Z,60.14
2018-10-21T08:41:18.519Z,59.95
2018-10-21T08:42:18.396Z,60.24
2018-10-21T08:43:18.645Z,61.16
2018-10-21T08:44:18.148Z,61.25
2018-10-21T08:45:18.024Z,60.97
2018-10-21T08:46:18.022Z,60.49
2018-10-21T08:47:17.775Z,61.25
2018-10-21T08:48:17.649Z,60.43
2018-10-21T08:49:17.614Z,61.48
2018-10-21T08:50:17.402Z,60.36
2018-10-21T08:51:17.277Z,60.68
2018-10-21T08:52:17.248Z,59.63
2018-10-21T08:53:17.029Z,58.23
2018-10-21T08:54:16.934Z,56.63
2018-10-21T08:55:16.847Z,56.35
2018-10-21T08:56:16.654Z,56.45
2018-10-21T08:57:16.575Z,55.77
2018-10-21T08:58:16.533Z,54.72
2018-10-21T08:59:16.285Z,55.01
2018-10-21T09:00:16.162Z,55.27
2018-10-21T09:01:16.115Z,55.62
2018-10-21T09:02:15.912Z,55.62
2018-10-21T09:03:15.788Z,57.03
2018-10-21T09:04:15.799Z,57.70
2018-10-21T09:05:15.541Z,57.98
2018-10-21T09:06:15.417Z,58.04
2018-10-21T09:07:15.396Z,58.33
2018-10-21T09:08:15.170Z,59.48
2018-10-21T09:09:15.084Z,60.52
2018-10-21T09:10:15.034Z,61.86
2018-10-21T09:11:14.797Z,62.02
2018-10-21T09:12:14.672Z,61.96
2018-10-21T09:13:14.699Z,62.15
2018-10-21T09:14:14.427Z,61.13
2018-10-21T09:15:14.465Z,60.75
2018-10-21T09:16:14.207Z,59.44
2018-10-21T09:17:14.053Z,59.56
2018-10-21T09:18:13.929Z,58.70
2018-10-21T09:19:13.847Z,57.56
2018-10-21T09:20:13.680Z,58.68
2018-10-21T09:21:13.560Z,58.94
2018-10-21T09:22:13.503Z,59.76
2018-10-21T09:23:13.306Z,61.48
2018-10-21T09:24:13.183Z,61.76
2018-10-21T09:25:13.145Z,61.67
2018-10-21T09:26:12.935Z,62.52
2018-10-21T09:27:12.812Z,63.39
2018-10-21T09:28:12.782Z,63.76
2018-10-21T09:29:12.563Z,63.76
2018-10-21T09:30:12.441Z,62.72
2018-10-21T09:31:12.356Z,61.96
2018-10-21T09:32:12.192Z,62.18
2018-10-21T09:33:12.088Z,61.99
2018-10-21T09:34:12.049Z,62.68
2018-10-21T09:35:11.816Z,62.11
2018-10-21T09:36:11.694Z,61.38
2018-10-21T09:37:11.581Z,59.63
2018-10-21T09:38:11.444Z,59.19
2018-10-21T09:39:11.320Z,60.27
2018-10-21T09:40:11.271Z,58.54
2018-10-21T09:41:11.072Z,58.93
2018-10-21T09:42:11.013Z,58.61
2018-10-21T09:43:10.912Z,58.61
2018-10-21T09:44:10.699Z,58.51
2018-10-21T09:45:10.577Z,58.80
2018-10-21T09:46:10.495Z,59.12
2018-10-21T09:47:10.328Z,58.54
2018-10-21T09:48:10.208Z,58.36
2018-10-21T09:49:10.197Z,58.70
2018-10-21T09:50:09.957Z,59.78
2018-10-21T09:51:09.832Z,58.58
2018-10-21T09:52:09.771Z,57.33
2018-10-21T09:53:09.588Z,56.85
2018-10-21T09:54:09.473Z,57.55
2018-10-21T09:55:09.408Z,56.91
2018-10-21T09:56:09.219Z,57.10
2018-10-21T09:57:09.096Z,55.76
2018-10-21T09:58:09.053Z,55.64
2018-10-21T09:59:08.849Z,56.21
2018-10-21T10:00:08.727Z,55.83
2018-10-21T10:01:08.676Z,54.90
2018-10-21T10:02:08.482Z,56.02
2018-10-21T10:03:08.361Z,56.34
2018-10-21T10:04:08.268Z,56.05
2018-10-21T10:05:08.143Z,55.38
2018-10-21T10:06:07.993Z,55.47
2018-10-21T10:07:07.922Z,55.86
2018-10-21T10:08:07.747Z,56.31
2018-10-21T10:09:07.626Z,56.79
2018-10-21T10:10:07.554Z,56.60
2018-10-21T10:11:07.379Z,57.81
2018-10-21T10:12:07.259Z,57.62
2018-10-21T10:13:07.195Z,57.90
2018-10-21T10:14:07.012Z,57.36
2018-10-21T10:15:06.889Z,58.67
2018-10-21T10:16:06.803Z,58.10
2018-10-21T10:17:06.648Z,57.43
2018-10-21T10:18:06.524Z,57.62
2018-10-21T10:19:08.371Z,57.62
2018-10-21T10:20:06.278Z,57.33
2018-10-21T10:21:06.156Z,57.59
2018-10-21T10:22:06.056Z,58.73
2018-10-21T10:23:05.909Z,58.54
2018-10-21T10:24:05.791Z,59.98
2018-10-21T10:25:05.727Z,58.83
2018-10-21T10:26:05.544Z,59.31
2018-10-21T10:27:05.417Z,59.12
2018-10-21T10:28:05.351Z,59.98
2018-10-21T10:29:05.174Z,60.64
2018-10-21T10:30:05.054Z,59.81
2018-10-21T10:31:05.015Z,59.15
2018-10-21T10:32:04.804Z,58.95
2018-10-21T10:33:04.681Z,58.38
2018-10-21T10:34:04.567Z,58.67
2018-10-21T10:35:04.436Z,59.72
2018-10-21T10:36:04.325Z,60.23
2018-10-21T10:37:04.207Z,59.37
2018-10-21T10:38:04.068Z,59.08
2018-10-21T10:39:03.943Z,59.08
2018-10-21T10:40:04.687Z,59.37
2018-10-21T10:41:03.698Z,59.63
2018-10-21T10:42:03.630Z,59.91
2018-10-21T10:43:03.518Z,60.96
2018-10-21T10:44:03.329Z,60.30
2018-10-21T10:45:03.207Z,59.81
2018-10-21T10:46:03.103Z,59.24
2018-10-21T10:47:02.961Z,58.48
2018-10-21T10:48:02.841Z,59.88
2018-10-21T10:49:02.786Z,61.32
2018-10-21T10:50:02.596Z,62.18
2018-10-21T10:51:02.469Z,62.27
2018-10-21T10:52:02.383Z,62.43
2018-10-21T10:53:02.327Z,63.92
2018-10-21T10:54:02.106Z,65.55
2018-10-21T10:55:03.879Z,64.78
2018-10-21T10:56:01.873Z,65.61
2018-10-21T10:57:01.736Z,67.27
2018-10-21T10:58:01.675Z,67.65
2018-10-21T10:59:01.486Z,66.60
2018-10-21T11:00:01.532Z,65.77
2018-10-21T11:01:01.270Z,64.50
2018-10-21T11:02:01.118Z,63.83
2018-10-21T11:03:00.993Z,63.29
2018-10-21T11:04:00.891Z,63.10
2018-10-21T11:05:00.747Z,64.69
2018-10-21T11:06:00.628Z,65.55
2018-10-21T11:07:00.522Z,64.81
2018-10-21T11:08:00.378Z,64.05
2018-10-21T11:09:00.698Z,62.71
2018-10-21T11:10:00.146Z,61.22
2018-10-21T11:11:00.005Z,60.74
2018-10-21T11:11:59.879Z,60.68
2018-10-21T11:12:59.784Z,59.81
2018-10-21T11:13:59.634Z,59.72
2018-10-21T11:14:59.510Z,59.72
2018-10-21T11:15:59.412Z,59.08
2018-10-21T11:16:59.263Z,58.98
2018-10-21T11:17:59.141Z,58.51
2018-10-21T11:18:59.052Z,58.61
2018-10-21T11:19:58.895Z,59.05
2018-10-21T11:20:58.773Z,59.63
2018-10-21T11:21:58.682Z,59.81
2018-10-21T11:22:58.527Z,60.33
2018-10-21T11:23:58.401Z,59.30
2018-10-21T11:24:58.289Z,56.82
2018-10-21T11:25:58.156Z,55.51
2018-10-21T11:26:58.037Z,55.22
2018-10-21T11:27:57.937Z,54.71
2018-10-21T11:28:57.786Z,56.43
2018-10-21T11:29:57.664Z,57.68
2018-10-21T11:30:57.585Z,56.43
2018-10-21T11:31:57.422Z,56.43
2018-10-21T11:32:57.298Z,54.43
2018-10-21T11:33:57.186Z,54.68
2018-10-21T11:34:57.053Z,54.80
2018-10-21T11:35:56.929Z,54.61
2018-10-21T11:36:56.830Z,54.43
2018-10-21T11:37:56.685Z,53.92
2018-10-21T11:38:56.562Z,52.99
2018-10-21T11:39:56.489Z,52.51
2018-10-21T11:40:56.315Z,54.02
2018-10-21T11:41:56.194Z,55.23
2018-10-21T11:42:56.088Z,57.53
2018-10-21T11:43:55.949Z,58.58
2018-10-21T11:44:55.826Z,58.76
2018-10-21T11:45:55.763Z,58.22
2018-10-21T11:46:55.581Z,56.34
2018-10-21T11:47:55.463Z,56.53
2018-10-21T11:48:55.362Z,56.94
2018-10-21T11:49:55.213Z,56.46
2018-10-21T11:50:55.095Z,54.71
2018-10-21T11:51:54.986Z,54.52
2018-10-21T11:52:54.847Z,54.04
2018-10-21T11:53:54.729Z,55.00
2018-10-21T11:54:54.606Z,55.93
2018-10-21T11:55:54.479Z,56.88
2018-10-21T11:56:54.360Z,58.00
2018-10-21T11:57:54.267Z,57.97
2018-10-21T11:58:54.112Z,58.64
2018-10-21T11:59:53.990Z,58.86
2018-10-21T12:00:53.894Z,59.63
2018-10-21T12:01:53.764Z,59.56
2018-10-21T12:02:53.625Z,59.84
2018-10-21T12:03:53.501Z,59.37
2018-10-21T12:04:53.376Z,59.75
2018-10-21T12:05:53.258Z,59.56
2018-10-21T12:06:53.135Z,58.25
2018-10-21T12:07:53.011Z,58.44
2018-10-21T12:08:52.888Z,58.06
2018-10-21T12:09:52.766Z,57.39
2018-10-21T12:10:52.642Z,58.92
2018-10-21T12:11:52.520Z,57.42
2018-10-21T12:12:52.397Z,57.32
2018-10-21T12:13:52.277Z,56.65
2018-10-21T12:14:52.154Z,56.15
2018-10-21T12:15:52.035Z,57.87
2018-10-21T12:16:51.909Z,57.68
2018-10-21T12:17:51.788Z,56.82
2018-10-21T12:18:51.665Z,56.72
2018-10-21T12:19:51.590Z,57.10
2018-10-21T12:20:51.418Z,57.10
2018-10-21T12:21:51.298Z,57.07
2018-10-21T12:22:51.224Z,56.98
2018-10-21T12:23:51.053Z,56.60
2018-10-21T12:24:51.639Z,56.79
2018-10-21T12:25:50.805Z,57.07
2018-10-21T12:26:50.686Z,56.88
2018-10-21T12:27:50.561Z,57.81
2018-10-21T12:28:50.440Z,58.03
2018-10-21T12:29:50.317Z,57.07
2018-10-21T12:30:50.195Z,53.34
2018-10-21T12:31:50.070Z,53.06
2018-10-21T12:32:49.948Z,52.20
2018-10-21T12:33:49.826Z,50.57
2018-10-21T12:34:49.702Z,50.76
2018-10-21T12:35:49.591Z,51.91
2018-10-21T12:36:49.457Z,51.93
2018-10-21T12:37:49.335Z,49.84
2018-10-21T12:38:49.212Z,49.86
2018-10-21T12:39:49.096Z,50.52
2018-10-21T12:40:49.123Z,49.95
2018-10-21T12:41:48.847Z,49.98
2018-10-21T12:42:48.891Z,49.95
2018-10-21T12:43:48.601Z,49.86
2018-10-21T12:44:48.481Z,50.74
2018-10-21T12:45:48.356Z,50.26
2018-10-21T12:46:48.232Z,49.98
2018-10-21T12:47:48.109Z,47.58
2018-10-21T12:48:47.987Z,46.53
2018-10-21T12:49:47.867Z,47.56
2018-10-21T12:50:47.836Z,49.09